Time;durP1;ratioP1;P1;durP2;ratioP2;P2;SDS_P1;SDS_P2;PMS_P1;PMS_P2;Temp;Humidity;BMP_temperature;BMP_pressure;BME280_temperature;BME280_humidity;BME280_pressure;Samples;Min_cycle;Max_cycle;Signal;HPM_P1;HPM_P2
2022/08/04 00:02:38;;;;;;;7.40;5.32;;;21.90;98.30;;;;;;5035234;28;20201;-72
2022/08/04 00:05:06;;;;;;;6.43;5.60;;;21.90;98.40;;;;;;5038958;28;20205;-72
2022/08/04 00:07:41;;;;;;;6.25;5.65;;;21.90;98.50;;;;;;5061828;28;20213;-72
2022/08/04 00:10:09;;;;;;;5.65;4.78;;;21.80;98.60;;;;;;5040208;28;20205;-72
2022/08/04 00:12:41;;;;;;;7.90;5.50;;;21.80;98.40;;;;;;5045075;28;20207;-72
2022/08/04 00:15:11;;;;;;;8.48;5.00;;;21.80;98.40;;;;;;5056411;28;20662;-72
2022/08/04 00:17:40;;;;;;;6.55;4.80;;;21.80;98.50;;;;;;5053467;28;20194;-73
2022/08/04 00:20:09;;;;;;;5.72;4.53;;;21.80;98.40;;;;;;5064238;28;20325;-71
2022/08/04 00:22:39;;;;;;;6.90;5.15;;;21.80;98.60;;;;;;5061814;28;20210;-72
2022/08/04 00:25:07;;;;;;;7.18;5.30;;;21.80;98.70;;;;;;5060679;28;20638;-72
2022/08/04 00:27:35;;;;;;;4.97;4.47;;;21.80;98.80;;;;;;5066452;28;20222;-72
2022/08/04 00:30:04;;;;;;;5.60;5.03;;;21.80;98.80;;;;;;5060729;28;20212;-72
2022/08/04 00:32:31;;;;;;;7.22;4.50;;;21.80;98.80;;;;;;5065237;28;20216;-73
2022/08/04 00:34:58;;;;;;;7.68;5.03;;;21.80;98.90;;;;;;5047271;28;20210;-72
2022/08/04 00:37:26;;;;;;;5.78;4.50;;;21.70;98.80;;;;;;5054344;28;20201;-72
2022/08/04 00:39:55;;;;;;;6.50;4.90;;;21.80;98.80;;;;;;5048805;28;20234;-73
2022/08/04 00:42:41;;;;;;;6.35;4.05;;;21.70;98.70;;;;;;5054279;28;20210;-72
2022/08/04 00:45:37;;;;;;;7.75;4.68;;;21.70;98.70;;;;;;5056708;28;20197;-72
2022/08/04 00:48:16;;;;;;;10.35;4.60;;;21.80;98.60;;;;;;5055722;28;20217;-72
2022/08/04 00:50:45;;;;;;;4.68;4.28;;;21.80;98.60;;;;;;5035008;28;20199;-72
2022/08/04 00:53:30;;;;;;;4.63;4.00;;;21.70;98.60;;;;;;5059010;28;20577;-72
2022/08/04 00:56:22;;;;;;;6.75;4.45;;;21.80;98.60;;;;;;5055548;28;20241;-72
2022/08/04 00:59:02;;;;;;;6.63;4.20;;;21.70;98.40;;;;;;5052740;28;20205;-71
2022/08/04 01:01:43;;;;;;;4.97;4.30;;;21.70;98.40;;;;;;5066965;28;20212;-73
2022/08/04 01:04:16;;;;;;;4.10;3.70;;;21.70;98.50;;;;;;5049703;28;20424;-74
2022/08/04 01:06:53;;;;;;;8.10;4.63;;;21.70;98.60;;;;;;5061087;28;20205;-73
2022/08/04 01:09:33;;;;;;;4.40;3.72;;;21.70;98.60;;;;;;5065443;28;20577;-74
2022/08/04 01:12:15;;;;;;;7.00;3.80;;;21.70;98.40;;;;;;5038329;28;20549;-74
2022/08/04 01:14:56;;;;;;;3.80;3.50;;;21.70;98.40;;;;;;5041323;28;20230;-74
2022/08/04 01:17:30;;;;;;;4.43;3.10;;;21.70;98.30;;;;;;5058353;28;20210;-73
2022/08/04 01:20:04;;;;;;;3.40;3.10;;;21.70;98.00;;;;;;5066903;28;20228;-72
2022/08/04 01:23:05;;;;;;;4.80;3.92;;;21.70;97.70;;;;;;5055779;28;20263;-73
2022/08/04 01:26:05;;;;;;;6.18;3.85;;;21.70;97.70;;;;;;5043245;28;20312;-72
2022/08/04 01:28:46;;;;;;;8.75;4.07;;;21.70;97.70;;;;;;5057172;28;20579;-72
2022/08/04 01:31:22;;;;;;;3.95;3.63;;;21.70;97.70;;;;;;5047970;28;20194;-72
2022/08/04 01:33:50;;;;;;;4.15;3.75;;;21.80;97.80;;;;;;5050631;28;20732;-72
2022/08/04 01:36:20;;;;;;;4.38;3.60;;;21.70;97.80;;;;;;5057890;28;20225;-73
2022/08/04 01:38:47;;;;;;;3.88;3.55;;;21.70;97.90;;;;;;5049380;28;20207;-72
2022/08/04 01:41:14;;;;;;;5.90;4.20;;;21.70;97.90;;;;;;5072854;28;20515;-71
2022/08/04 01:43:42;;;;;;;3.78;3.38;;;21.70;98.00;;;;;;5066907;28;20213;-73
2022/08/04 01:46:12;;;;;;;4.43;3.58;;;21.70;98.10;;;;;;5062344;28;20206;-73
2022/08/04 01:48:42;;;;;;;4.15;3.35;;;21.70;98.10;;;;;;5056416;28;20328;-73
2022/08/04 01:51:10;;;;;;;3.70;3.13;;;21.60;98.00;;;;;;5042528;28;20217;-72
2022/08/04 01:53:38;;;;;;;4.57;3.55;;;21.60;97.90;;;;;;5050711;28;20220;-73
2022/08/04 01:56:07;;;;;;;3.88;3.13;;;21.60;98.00;;;;;;5062899;28;20206;-72
2022/08/04 01:58:36;;;;;;;4.28;3.05;;;21.60;98.10;;;;;;5061392;28;20227;-73
2022/08/04 02:01:04;;;;;;;4.03;3.13;;;21.60;98.00;;;;;;5056766;28;20233;-73
2022/08/04 02:03:33;;;;;;;5.78;3.45;;;21.60;97.90;;;;;;5062569;28;20205;-73
2022/08/04 02:06:11;;;;;;;5.15;3.53;;;21.60;97.90;;;;;;5059195;28;20202;-72
2022/08/04 02:08:45;;;;;;;3.80;3.25;;;21.60;97.70;;;;;;5043441;28;20197;-73
2022/08/04 02:11:16;;;;;;;4.45;3.20;;;21.60;97.60;;;;;;5057749;28;20217;-73
2022/08/04 02:13:54;;;;;;;5.03;3.45;;;21.60;97.60;;;;;;5064705;28;20214;-73
2022/08/04 02:16:30;;;;;;;7.43;3.38;;;21.60;97.60;;;;;;5058639;28;20206;-72
2022/08/04 02:19:02;;;;;;;4.15;2.97;;;21.70;97.70;;;;;;5045864;28;20202;-72
2022/08/04 02:21:31;;;;;;;4.20;3.38;;;21.60;97.60;;;;;;5048455;28;20234;-72
2022/08/04 02:24:05;;;;;;;3.63;3.33;;;21.60;97.60;;;;;;5067368;28;20594;-72
2022/08/04 02:26:33;;;;;;;3.05;2.78;;;21.60;97.80;;;;;;5051318;28;20271;-73
2022/08/04 02:29:06;;;;;;;3.13;2.72;;;21.60;97.20;;;;;;5055146;28;20221;-72
2022/08/04 02:31:39;;;;;;;3.90;3.10;;;21.60;97.10;;;;;;5042750;28;20195;-73
2022/08/04 02:34:09;;;;;;;5.68;3.13;;;21.60;97.10;;;;;;5055435;28;20220;-72
2022/08/04 02:36:40;;;;;;;3.03;2.67;;;21.60;97.10;;;;;;5054634;28;20762;-71
2022/08/04 02:39:09;;;;;;;3.05;2.75;;;21.60;97.00;;;;;;5052713;28;20288;-72
2022/08/04 02:41:37;;;;;;;3.28;2.97;;;21.60;96.90;;;;;;5065155;28;20276;-72
2022/08/04 02:44:06;;;;;;;4.45;3.00;;;21.60;96.80;;;;;;5052823;28;20209;-73
2022/08/04 02:46:34;;;;;;;4.07;2.80;;;21.60;96.70;;;;;;5068277;28;20212;-73
2022/08/04 02:49:03;;;;;;;4.88;2.92;;;21.60;96.60;;;;;;5063116;28;20213;-74
2022/08/04 02:51:34;;;;;;;4.18;3.17;;;21.60;96.60;;;;;;5061403;28;20563;-72
2022/08/04 02:54:05;;;;;;;3.88;2.70;;;21.60;96.50;;;;;;5051703;28;20201;-72
2022/08/04 02:56:33;;;;;;;4.85;2.58;;;21.60;96.40;;;;;;5045526;28;20213;-73
2022/08/04 02:59:02;;;;;;;5.22;2.70;;;21.60;96.20;;;;;;5062864;28;20671;-73
2022/08/04 03:01:29;;;;;;;7.57;3.17;;;21.60;96.30;;;;;;5059272;28;20219;-73
2022/08/04 03:04:14;;;;;;;3.65;2.20;;;21.60;96.40;;;;;;5061879;28;20209;-73
2022/08/04 03:07:06;;;;;;;5.30;2.78;;;21.60;96.30;;;;;;5071848;28;20209;-73
2022/08/04 03:10:05;;;;;;;5.78;3.00;;;21.60;96.40;;;;;;5048111;28;20206;-74
2022/08/04 03:13:10;;;;;;;3.05;2.75;;;21.60;96.30;;;;;;5068186;28;20209;-73
2022/08/04 03:16:03;;;;;;;3.25;2.58;;;21.60;96.20;;;;;;5067064;28;20194;-73
2022/08/04 03:19:15;;;;;;;4.20;2.70;;;21.60;96.00;;;;;;5052223;28;20206;-73
2022/08/04 03:22:07;;;;;;;2.60;2.40;;;21.70;95.80;;;;;;5064052;28;20305;-73
2022/08/04 03:25:06;;;;;;;3.15;2.85;;;21.70;95.70;;;;;;5054757;28;20673;-73
2022/08/04 03:28:24;;;;;;;2.63;2.22;;;21.70;95.50;;;;;;5061743;28;20206;-72
2022/08/04 03:31:10;;;;;;;3.30;3.00;;;21.80;95.60;;;;;;4992067;28;20215;-72
2022/08/04 03:33:48;;;;;;;3.03;2.50;;;21.80;95.60;;;;;;5005160;28;20203;-71
2022/08/04 03:36:41;;;;;;;7.05;3.00;;;21.80;95.50;;;;;;5023047;28;20298;-72
2022/08/04 03:39:55;;;;;;;4.20;2.90;;;21.80;95.50;;;;;;5044108;28;20202;-72
2022/08/04 03:42:39;;;;;;;4.80;2.50;;;21.80;95.50;;;;;;5048544;28;20210;-73
2022/08/04 03:45:32;;;;;;;2.90;2.70;;;21.90;95.60;;;;;;5053866;28;20465;-72
2022/08/04 03:48:30;;;;;;;9.43;2.88;;;21.90;95.60;;;;;;5042506;28;20206;-73
2022/08/04 03:54:44;;;;;;;3.05;2.42;;;21.90;95.60;;;;;;5065949;28;20615;-73
2022/08/04 03:57:39;;;;;;;3.05;2.75;;;21.90;95.60;;;;;;5048118;28;20685;-71
2022/08/04 04:00:09;;;;;;;3.40;2.80;;;21.90;95.60;;;;;;5046919;28;20245;-71
2022/08/04 04:02:58;;;;;;;5.40;2.97;;;21.90;95.60;;;;;;5053659;28;20572;-72
2022/08/04 04:05:50;;;;;;;2.85;2.42;;;22.00;95.70;;;;;;5046746;28;20210;-72
2022/08/04 04:08:45;;;;;;;4.15;2.70;;;22.00;95.70;;;;;;5068243;28;20201;-71
2022/08/04 04:11:34;;;;;;;5.63;2.67;;;22.00;95.70;;;;;;5049968;28;20209;-71
2022/08/04 04:14:18;;;;;;;4.75;2.97;;;22.00;95.90;;;;;;5058689;28;20212;-71
2022/08/04 04:17:07;;;;;;;3.97;3.60;;;22.10;96.00;;;;;;5066254;28;20238;-71
2022/08/04 04:20:08;;;;;;;5.22;3.20;;;22.10;96.00;;;;;;5048376;28;20281;-71
2022/08/04 04:23:09;;;;;;;12.77;3.42;;;22.10;96.00;;;;;;5053208;28;20650;-72
2022/08/04 04:25:50;;;;;;;4.00;3.22;;;22.10;96.10;;;;;;5055356;28;20232;-71
2022/08/04 04:28:36;;;;;;;5.40;3.17;;;22.10;96.20;;;;;;5049141;28;20206;-71
2022/08/04 04:31:18;;;;;;;4.32;3.38;;;22.10;96.30;;;;;;5049259;28;20203;-72
2022/08/04 04:33:58;;;;;;;6.95;3.45;;;22.10;96.40;;;;;;5062295;28;20198;-72
2022/08/04 04:36:36;;;;;;;3.70;3.38;;;22.10;96.40;;;;;;5069680;28;20886;-71
2022/08/04 04:39:13;;;;;;;3.72;3.35;;;22.10;96.50;;;;;;5059371;28;20232;-71
2022/08/04 04:42:02;;;;;;;5.80;3.60;;;22.10;96.70;;;;;;5053456;28;20240;-73
2022/08/04 04:44:56;;;;;;;3.83;3.53;;;22.10;96.80;;;;;;5061117;28;20197;-72
2022/08/04 04:47:31;;;;;;;4.00;3.65;;;22.10;96.90;;;;;;5049727;28;20732;-72
2022/08/04 04:50:08;;;;;;;4.93;3.97;;;22.10;97.10;;;;;;5049507;28;20206;-72
2022/08/04 04:52:43;;;;;;;9.35;4.13;;;22.10;97.20;;;;;;5038999;28;20209;-72
2022/08/04 04:55:17;;;;;;;5.68;4.10;;;22.00;97.30;;;;;;5054118;28;20202;-71
2022/08/04 04:57:46;;;;;;;4.80;4.20;;;21.90;97.50;;;;;;5047340;28;20202;-71
2022/08/04 05:00:15;;;;;;;5.88;4.05;;;21.90;97.60;;;;;;5054980;28;20201;-72
2022/08/04 05:03:20;;;;;;;5.38;4.32;;;21.80;97.70;;;;;;5054355;28;20310;-71
2022/08/04 05:06:13;;;;;;;4.88;4.38;;;21.80;98.00;;;;;;5062696;28;20709;-71
2022/08/04 05:09:03;;;;;;;5.97;4.20;;;21.80;98.10;;;;;;5052027;28;20688;-73
2022/08/04 05:12:11;;;;;;;5.35;4.10;;;21.90;98.20;;;;;;5065346;28;20561;-72
2022/08/04 05:14:43;;;;;;;4.30;3.90;;;22.00;98.30;;;;;;5061681;28;20198;-69
2022/08/04 05:17:18;;;;;;;7.03;3.88;;;22.00;98.30;;;;;;5048184;28;20224;-69
2022/08/04 05:19:58;;;;;;;4.78;4.28;;;22.10;98.30;;;;;;5073164;28;20602;-70
2022/08/04 05:22:31;;;;;;;4.82;3.75;;;22.20;98.30;;;;;;5044737;28;20208;-69
2022/08/04 05:25:05;;;;;;;4.80;4.00;;;22.30;98.20;;;;;;5065677;28;20201;-69
2022/08/04 05:27:38;;;;;;;10.25;4.13;;;22.50;98.10;;;;;;5055397;28;20482;-73
2022/08/04 05:30:07;;;;;;;5.20;3.90;;;22.50;98.10;;;;;;5051209;28;20212;-73
2022/08/04 05:32:41;;;;;;;4.95;4.25;;;22.60;98.10;;;;;;5050933;28;20214;-72
2022/08/04 05:35:11;;;;;;;5.50;4.45;;;22.60;97.90;;;;;;5062238;28;20215;-71
2022/08/04 05:37:40;;;;;;;8.65;3.55;;;22.60;97.80;;;;;;5049713;28;20297;-73
2022/08/04 05:40:11;;;;;;;7.78;4.22;;;22.70;97.90;;;;;;5047545;28;20210;-74
2022/08/04 05:42:40;;;;;;;5.30;4.80;;;22.80;97.80;;;;;;5044146;28;20202;-74
2022/08/04 05:45:09;;;;;;;6.07;4.40;;;22.80;97.70;;;;;;5040141;28;20213;-73
2022/08/04 05:47:37;;;;;;;5.70;4.13;;;22.90;97.50;;;;;;5043528;28;20274;-74
2022/08/04 05:50:06;;;;;;;8.20;4.18;;;22.90;97.50;;;;;;5048014;28;20209;-74
2022/08/04 05:52:35;;;;;;;7.03;4.10;;;22.90;97.20;;;;;;5045965;28;20207;-74
2022/08/04 05:55:02;;;;;;;4.80;4.03;;;23.00;97.10;;;;;;5036665;28;20296;-73
2022/08/04 05:57:31;;;;;;;6.68;3.95;;;23.10;97.10;;;;;;5044472;28;20574;-72
2022/08/04 06:00:01;;;;;;;6.35;4.00;;;23.10;96.90;;;;;;5049215;28;20623;-72
2022/08/04 06:02:30;;;;;;;4.38;3.92;;;23.20;96.70;;;;;;5045231;28;20342;-74
2022/08/04 06:04:59;;;;;;;6.00;3.85;;;23.30;96.40;;;;;;5052646;28;20281;-72
2022/08/04 06:07:26;;;;;;;6.35;3.90;;;23.40;96.40;;;;;;5057641;28;20673;-72
2022/08/04 06:09:53;;;;;;;6.30;3.50;;;23.50;96.30;;;;;;5052031;28;20206;-72
2022/08/04 06:12:25;;;;;;;6.03;3.50;;;23.60;96.30;;;;;;5046340;28;20207;-73
2022/08/04 06:14:56;;;;;;;5.82;3.85;;;23.70;96.00;;;;;;5048086;28;20217;-73
2022/08/04 06:17:30;;;;;;;6.20;3.88;;;23.80;95.80;;;;;;5041154;28;20206;-73
2022/08/04 06:19:59;;;;;;;10.55;3.70;;;23.90;95.60;;;;;;5052468;28;20230;-73
2022/08/04 06:22:28;;;;;;;7.45;3.90;;;23.90;95.30;;;;;;5044185;28;20226;-71
2022/08/04 06:24:58;;;;;;;7.70;3.72;;;23.90;95.40;;;;;;5045753;28;20221;-70
2022/08/04 06:27:26;;;;;;;7.57;3.83;;;23.90;95.40;;;;;;5047125;28;20232;-72
2022/08/04 06:29:57;;;;;;;8.75;3.97;;;24.00;95.40;;;;;;5044968;28;20230;-72
2022/08/04 06:32:26;;;;;;;6.65;3.58;;;24.10;95.00;;;;;;5059390;28;20206;-71
2022/08/04 06:34:55;;;;;;;5.60;3.42;;;24.20;94.70;;;;;;5053220;28;20281;-71
2022/08/04 06:37:23;;;;;;;4.38;3.25;;;24.20;94.40;;;;;;5055534;28;20232;-70
2022/08/04 06:39:52;;;;;;;5.72;3.22;;;24.20;94.30;;;;;;5054791;28;20213;-73
2022/08/04 06:42:22;;;;;;;3.92;3.35;;;24.30;94.10;;;;;;5047946;28;20272;-69
2022/08/04 06:44:52;;;;;;;6.28;3.08;;;24.30;93.80;;;;;;5054850;28;20197;-69
2022/08/04 06:47:21;;;;;;;3.60;3.30;;;24.50;93.70;;;;;;5047289;28;20213;-69
2022/08/04 06:49:51;;;;;;;6.05;3.60;;;24.60;93.60;;;;;;5056539;28;20625;-71
2022/08/04 06:52:19;;;;;;;6.13;4.38;;;24.70;93.60;;;;;;5055737;28;20206;-71
2022/08/04 06:54:46;;;;;;;4.72;3.63;;;24.80;93.60;;;;;;5051296;28;20215;-71
2022/08/04 06:57:16;;;;;;;3.75;3.25;;;24.90;93.60;;;;;;5051102;28;20198;-70
2022/08/04 06:59:45;;;;;;;5.57;3.20;;;24.90;93.50;;;;;;5056322;28;20201;-71
2022/08/04 07:02:14;;;;;;;7.80;3.50;;;24.90;93.10;;;;;;5048052;28;20226;-71
2022/08/04 07:04:43;;;;;;;5.53;3.42;;;25.00;93.00;;;;;;5049756;28;20554;-70
2022/08/04 07:07:11;;;;;;;6.15;3.25;;;25.00;93.00;;;;;;5046100;28;20221;-64
2022/08/04 07:09:39;;;;;;;5.85;3.33;;;25.00;92.70;;;;;;5045407;28;20253;-65
2022/08/04 07:12:07;;;;;;;9.43;3.13;;;25.00;92.50;;;;;;5051141;28;20289;-67
2022/08/04 07:14:35;;;;;;;3.67;3.15;;;25.10;92.60;;;;;;5044156;28;20218;-64
2022/08/04 07:17:04;;;;;;;3.30;3.00;;;25.10;92.60;;;;;;5051392;28;20300;-65
2022/08/04 07:19:31;;;;;;;5.43;2.63;;;25.20;92.40;;;;;;5053003;28;20206;-66
2022/08/04 07:22:01;;;;;;;6.63;3.40;;;25.20;92.40;;;;;;5056836;28;20214;-64
2022/08/04 07:24:31;;;;;;;3.25;2.70;;;25.30;92.20;;;;;;5043900;28;20209;-65
2022/08/04 07:26:58;;;;;;;3.97;3.17;;;25.40;92.10;;;;;;5053634;28;20233;-65
2022/08/04 07:29:25;;;;;;;6.43;3.10;;;25.50;91.90;;;;;;5056338;28;20220;-65
2022/08/04 07:31:53;;;;;;;11.25;3.33;;;25.50;91.60;;;;;;5055416;28;20213;-64
2022/08/04 07:34:20;;;;;;;3.70;2.47;;;25.60;91.50;;;;;;5054217;28;20206;-66
2022/08/04 07:36:49;;;;;;;3.20;2.50;;;25.70;91.50;;;;;;5067354;28;20622;-64
2022/08/04 07:39:17;;;;;;;3.63;2.70;;;25.90;91.20;;;;;;5075551;28;20220;-65
2022/08/04 07:41:45;;;;;;;7.43;3.75;;;26.00;90.70;;;;;;5061676;28;20560;-64
2022/08/04 07:44:14;;;;;;;6.25;3.03;;;26.10;90.40;;;;;;5057826;28;20399;-67
2022/08/04 07:46:41;;;;;;;2.60;2.40;;;26.20;90.50;;;;;;5050088;28;20203;-65
2022/08/04 07:49:08;;;;;;;7.05;2.53;;;26.30;90.00;;;;;;5055012;28;20564;-65
2022/08/04 07:51:36;;;;;;;6.97;2.67;;;26.30;88.80;;;;;;5053346;28;20209;-67
2022/08/04 07:54:04;;;;;;;6.50;2.67;;;26.40;88.60;;;;;;5048463;28;20209;-66
2022/08/04 07:56:33;;;;;;;5.68;2.10;;;26.50;87.90;;;;;;5058895;28;20676;-66
2022/08/04 07:59:01;;;;;;;2.95;1.95;;;26.60;86.40;;;;;;5055259;28;20577;-66
2022/08/04 08:01:28;;;;;;;5.85;2.10;;;26.60;85.60;;;;;;5054961;28;20218;-67
2022/08/04 08:03:57;;;;;;;7.10;2.00;;;26.70;85.10;;;;;;5052026;28;20650;-67
2022/08/04 08:06:24;;;;;;;2.78;2.22;;;26.70;84.80;;;;;;5055917;28;20217;-66
2022/08/04 08:08:52;;;;;;;3.75;2.00;;;26.90;85.10;;;;;;5051426;28;20210;-67
2022/08/04 08:11:19;;;;;;;3.83;2.35;;;27.10;84.80;;;;;;5050896;28;20202;-67
2022/08/04 08:13:48;;;;;;;3.40;2.13;;;27.20;84.00;;;;;;5053304;28;20673;-68
2022/08/04 08:16:15;;;;;;;2.15;1.95;;;27.30;83.80;;;;;;5060266;28;20618;-68
2022/08/04 08:18:42;;;;;;;2.15;2.00;;;27.50;83.40;;;;;;5057123;28;20206;-67
2022/08/04 08:21:09;;;;;;;6.63;2.40;;;27.80;83.30;;;;;;5056189;28;20237;-67
2022/08/04 08:23:36;;;;;;;2.80;2.13;;;28.00;82.70;;;;;;5051694;28;20210;-68
2022/08/04 08:26:03;;;;;;;3.03;1.85;;;28.20;81.60;;;;;;5056144;28;20225;-67
2022/08/04 08:28:30;;;;;;;2.53;1.95;;;28.30;81.10;;;;;;5054847;28;20214;-67
2022/08/04 08:30:58;;;;;;;2.70;2.25;;;28.50;79.80;;;;;;5041753;28;20216;-67
2022/08/04 08:33:25;;;;;;;5.40;2.20;;;28.50;79.50;;;;;;5047687;28;20574;-67
2022/08/04 08:35:59;;;;;;;4.72;2.20;;;28.60;78.80;;;;;;5052686;28;20606;-68
2022/08/04 08:38:42;;;;;;;4.80;2.20;;;28.70;77.90;;;;;;5053422;28;20293;-67
2022/08/04 08:41:35;;;;;;;3.25;2.15;;;28.80;77.30;;;;;;5059844;28;20205;-68
2022/08/04 08:44:32;;;;;;;3.28;1.85;;;28.90;77.10;;;;;;5063601;28;21417;-68
2022/08/04 08:47:14;;;;;;;2.33;2.13;;;29.10;76.50;;;;;;5047428;28;20214;-67
2022/08/04 08:50:15;;;;;;;4.38;2.70;;;29.20;75.30;;;;;;5061446;28;20252;-68
2022/08/04 08:52:59;;;;;;;5.43;2.25;;;29.20;74.60;;;;;;5039069;28;20203;-68
2022/08/04 08:55:40;;;;;;;2.58;1.70;;;29.30;74.30;;;;;;5047042;28;20242;-68
2022/08/04 08:58:22;;;;;;;5.55;2.47;;;29.30;74.30;;;;;;5052536;28;20210;-68
2022/08/04 09:00:58;;;;;;;4.13;1.63;;;29.30;73.80;;;;;;5050446;28;20238;-67
2022/08/04 09:03:46;;;;;;;2.00;1.77;;;29.40;73.50;;;;;;5042337;28;20282;-68
2022/08/04 09:06:28;;;;;;;11.63;3.38;;;29.60;73.40;;;;;;5062210;28;20214;-68
2022/08/04 09:09:06;;;;;;;3.72;1.88;;;29.70;72.00;;;;;;5058981;28;20243;-68
2022/08/04 09:11:41;;;;;;;5.15;2.03;;;29.80;70.30;;;;;;5036868;28;20207;-68
2022/08/04 09:14:16;;;;;;;3.47;1.83;;;29.70;70.30;;;;;;5043982;28;20213;-68
2022/08/04 09:16:52;;;;;;;3.70;1.92;;;29.80;70.30;;;;;;5050741;28;20513;-67
2022/08/04 09:19:27;;;;;;;6.75;2.53;;;29.90;70.60;;;;;;5041853;28;20305;-67
2022/08/04 09:22:01;;;;;;;4.22;1.83;;;30.10;70.00;;;;;;5052900;28;20213;-67
2022/08/04 09:24:39;;;;;;;3.15;1.80;;;30.20;68.80;;;;;;5053977;28;20620;-67
2022/08/04 09:27:13;;;;;;;4.60;2.10;;;30.30;69.20;;;;;;5042960;28;20230;-67
2022/08/04 09:29:46;;;;;;;2.85;2.30;;;30.40;68.90;;;;;;5053399;28;20680;-66
2022/08/04 09:32:23;;;;;;;3.67;1.90;;;30.50;67.30;;;;;;5048083;28;20224;-67
2022/08/04 09:35:06;;;;;;;2.03;1.80;;;30.50;67.00;;;;;;5062457;28;20198;-68
2022/08/04 09:37:40;;;;;;;1.92;1.83;;;30.50;67.30;;;;;;5052895;28;20584;-68
2022/08/04 09:40:17;;;;;;;2.40;1.95;;;30.80;67.30;;;;;;5054183;28;20220;-69
2022/08/04 09:42:52;;;;;;;1.95;1.60;;;31.00;66.40;;;;;;5070025;28;20220;-67
2022/08/04 09:45:29;;;;;;;2.85;2.05;;;31.20;66.30;;;;;;5068277;28;20196;-69
2022/08/04 09:48:02;;;;;;;2.53;2.03;;;31.40;65.50;;;;;;5057029;28;20204;-67
2022/08/04 09:50:35;;;;;;;2.22;1.88;;;31.70;64.40;;;;;;5053114;28;20205;-68
2022/08/04 09:53:13;;;;;;;3.25;1.92;;;31.80;63.90;;;;;;5073275;28;20247;-67
2022/08/04 09:55:53;;;;;;;4.45;2.30;;;31.80;62.60;;;;;;5062059;28;20577;-68
2022/08/04 09:58:28;;;;;;;2.40;1.73;;;31.80;62.40;;;;;;5060065;28;20204;-68
2022/08/04 10:01:01;;;;;;;2.08;1.75;;;31.80;61.50;;;;;;5071473;28;20250;-67
2022/08/04 10:03:35;;;;;;;2.20;2.00;;;31.80;61.00;;;;;;5047480;28;20220;-67
2022/08/04 10:06:21;;;;;;;3.47;1.50;;;31.90;61.00;;;;;;5062693;28;20209;-67
2022/08/04 10:09:08;;;;;;;4.57;1.73;;;32.00;60.60;;;;;;5045848;28;20677;-67
2022/08/04 10:11:49;;;;;;;1.98;1.88;;;32.00;60.30;;;;;;5072821;28;20266;-67
2022/08/04 10:14:40;;;;;;;1.75;1.65;;;32.20;60.80;;;;;;5059775;28;20204;-69
2022/08/04 10:17:31;;;;;;;1.98;1.80;;;32.30;60.20;;;;;;5071027;28;20230;-68
2022/08/04 10:20:09;;;;;;;1.73;1.63;;;32.40;60.20;;;;;;5070635;28;20234;-68
2022/08/04 10:22:47;;;;;;;2.65;2.45;;;32.40;59.80;;;;;;5074574;28;20244;-68
2022/08/04 10:25:24;;;;;;;2.90;2.30;;;32.50;59.10;;;;;;5073970;28;20638;-67
2022/08/04 10:27:54;;;;;;;2.25;2.05;;;32.50;59.70;;;;;;5076326;28;20220;-67
2022/08/04 10:30:22;;;;;;;3.30;2.30;;;32.50;58.90;;;;;;5075417;28;20616;-67
2022/08/04 10:32:55;;;;;;;2.20;2.00;;;32.60;58.20;;;;;;5056090;28;20194;-67
2022/08/04 10:35:25;;;;;;;3.83;1.95;;;32.70;58.20;;;;;;5070555;28;20209;-66
2022/08/04 10:38:05;;;;;;;2.58;2.17;;;32.80;57.90;;;;;;5050627;28;20206;-68
2022/08/04 10:40:44;;;;;;;4.07;2.47;;;32.90;57.90;;;;;;5064324;28;20201;-67
2022/08/04 10:43:37;;;;;;;3.05;2.20;;;33.00;57.40;;;;;;5048745;28;20205;-67
2022/08/04 10:46:07;;;;;;;5.20;2.55;;;32.80;57.10;;;;;;5052518;28;20205;-67
2022/08/04 10:48:41;;;;;;;2.45;2.25;;;32.80;57.50;;;;;;5069174;28;20209;-68
2022/08/04 10:51:18;;;;;;;2.50;2.30;;;32.90;57.10;;;;;;5073643;28;20228;-67
2022/08/04 10:53:52;;;;;;;2.88;2.30;;;33.00;57.20;;;;;;5075004;28;20299;-68
2022/08/04 10:56:26;;;;;;;4.70;2.08;;;33.00;56.80;;;;;;5073726;28;20224;-67
2022/08/04 10:58:57;;;;;;;4.57;1.88;;;33.00;56.90;;;;;;5069383;28;20201;-67
2022/08/04 11:01:27;;;;;;;2.50;2.30;;;33.20;56.90;;;;;;5051819;28;20202;-67
2022/08/04 11:03:59;;;;;;;4.20;2.70;;;33.40;56.60;;;;;;5046233;28;20324;-67
2022/08/04 11:06:28;;;;;;;3.83;2.08;;;33.60;56.60;;;;;;5054766;28;20216;-67
2022/08/04 11:08:58;;;;;;;3.95;3.05;;;33.60;56.40;;;;;;5075199;28;20653;-68
2022/08/04 11:11:31;;;;;;;3.83;2.38;;;33.60;55.40;;;;;;5059089;28;20670;-65
2022/08/04 11:14:02;;;;;;;4.60;2.47;;;33.50;55.60;;;;;;5047532;28;20245;-67
2022/08/04 11:16:36;;;;;;;3.20;2.38;;;33.50;55.80;;;;;;5040173;28;20716;-67
2022/08/04 11:19:15;;;;;;;2.22;2.10;;;33.60;55.90;;;;;;5054029;28;20237;-68
2022/08/04 11:21:44;;;;;;;2.17;2.08;;;33.70;55.50;;;;;;5072565;28;20208;-67
2022/08/04 11:24:17;;;;;;;3.53;2.00;;;33.70;55.30;;;;;;5056099;28;20476;-67
2022/08/04 11:26:49;;;;;;;6.00;2.17;;;33.70;55.30;;;;;;5066806;28;20240;-66
2022/08/04 11:29:22;;;;;;;2.13;2.03;;;33.60;55.40;;;;;;5057265;28;20679;-68
2022/08/04 11:31:49;;;;;;;2.33;1.83;;;33.70;55.50;;;;;;5053715;28;20205;-66
2022/08/04 11:34:20;;;;;;;4.13;2.15;;;33.70;55.40;;;;;;5065317;28;20202;-69
2022/08/04 11:36:52;;;;;;;2.63;2.13;;;33.60;55.70;;;;;;5048171;28;20252;-68
2022/08/04 11:39:27;;;;;;;3.08;2.40;;;33.30;55.50;;;;;;5051980;28;20198;-66
2022/08/04 11:42:00;;;;;;;6.82;2.30;;;33.20;56.20;;;;;;5048073;28;20232;-66
2022/08/04 11:44:36;;;;;;;3.78;2.28;;;33.10;56.30;;;;;;5057959;28;20619;-66
2022/08/04 11:47:13;;;;;;;2.22;2.10;;;33.20;56.60;;;;;;5057180;28;20208;-66
2022/08/04 11:49:45;;;;;;;3.05;2.00;;;33.40;56.80;;;;;;5054773;28;20277;-67
2022/08/04 11:52:15;;;;;;;5.78;2.50;;;33.80;56.00;;;;;;5037180;28;20202;-67
2022/08/04 11:54:44;;;;;;;4.60;2.70;;;33.90;55.50;;;;;;5052866;28;20685;-67
2022/08/04 11:57:11;;;;;;;4.47;2.25;;;34.00;55.00;;;;;;5054277;28;20214;-66
2022/08/04 11:59:39;;;;;;;4.22;1.90;;;33.90;54.40;;;;;;5054149;28;20221;-65
2022/08/04 12:02:30;;;;;;;2.53;2.13;;;33.90;55.00;;;;;;5055433;28;20205;-66
2022/08/04 12:04:58;;;;;;;2.45;2.25;;;34.00;54.70;;;;;;5047847;28;20579;-69
2022/08/04 12:07:41;;;;;;;5.60;2.22;;;34.20;54.50;;;;;;5051218;28;20208;-67
2022/08/04 12:10:23;;;;;;;3.25;2.35;;;34.10;53.80;;;;;;5053605;28;20581;-69
2022/08/04 12:13:03;;;;;;;2.83;2.63;;;33.90;54.20;;;;;;5045072;28;20205;-67
2022/08/04 12:26:49;;;;;;;3.45;2.42;;;33.50;54.30;;;;;;5086910;28;20631;-66
2022/08/04 12:29:18;;;;;;;4.97;2.72;;;33.40;54.50;;;;;;5077691;28;20208;-66
2022/08/04 12:31:50;;;;;;;4.30;2.40;;;33.40;54.60;;;;;;5077703;28;20424;-66
2022/08/04 12:34:27;;;;;;;6.38;3.10;;;33.40;54.10;;;;;;5086288;28;20220;-67
2022/08/04 12:37:01;;;;;;;2.75;2.15;;;33.30;54.00;;;;;;5088105;28;20274;-67
2022/08/04 12:39:31;;;;;;;2.63;2.42;;;33.20;54.30;;;;;;5086984;28;20197;-68
2022/08/04 12:42:07;;;;;;;2.55;2.15;;;33.10;54.40;;;;;;5085403;28;20231;-67
2022/08/04 12:44:35;;;;;;;4.00;2.33;;;33.00;54.50;;;;;;5086094;28;20207;-68
2022/08/04 12:47:05;;;;;;;3.17;2.58;;;32.90;54.90;;;;;;5087514;28;20789;-68
2022/08/04 12:49:35;;;;;;;2.55;1.98;;;32.90;54.90;;;;;;5079351;28;20211;-67
2022/08/04 12:52:06;;;;;;;3.20;2.58;;;32.90;54.60;;;;;;5083932;28;20224;-67
2022/08/04 12:54:35;;;;;;;3.67;2.40;;;33.00;54.60;;;;;;5085405;28;20213;-66
2022/08/04 12:57:06;;;;;;;2.58;2.38;;;33.00;54.70;;;;;;5086018;28;20976;-67
2022/08/04 12:59:38;;;;;;;3.78;3.17;;;32.70;54.80;;;;;;5085808;28;20291;-67
2022/08/04 13:02:06;;;;;;;3.08;2.63;;;32.70;55.20;;;;;;5087494;28;20572;-67
2022/08/04 13:04:37;;;;;;;6.03;2.50;;;32.70;55.00;;;;;;5085993;28;20212;-66
2022/08/04 13:07:09;;;;;;;3.45;2.20;;;32.70;54.90;;;;;;5086357;28;20201;-66
2022/08/04 13:09:38;;;;;;;6.18;2.63;;;32.70;54.80;;;;;;5086186;28;20648;-68
2022/08/04 13:12:13;;;;;;;3.67;2.05;;;32.80;54.80;;;;;;5086735;28;20204;-67
2022/08/04 13:14:43;;;;;;;2.50;2.00;;;33.00;54.30;;;;;;5085728;28;20212;-67
2022/08/04 13:17:10;;;;;;;3.90;2.33;;;32.90;53.30;;;;;;5066229;28;20286;-68
2022/08/04 13:19:38;;;;;;;2.25;2.15;;;32.90;53.60;;;;;;5070902;28;20212;-71
2022/08/04 13:22:06;;;;;;;3.42;2.35;;;33.00;53.20;;;;;;5075880;28;20208;-67
2022/08/04 13:24:34;;;;;;;2.25;2.08;;;33.10;53.10;;;;;;5071779;28;20208;-67
2022/08/04 13:27:08;;;;;;;3.95;2.40;;;33.00;53.20;;;;;;5071891;28;20206;-67
2022/08/04 13:29:38;;;;;;;2.28;2.03;;;32.90;53.60;;;;;;5053079;28;20210;-68
2022/08/04 13:32:06;;;;;;;5.70;2.03;;;32.90;53.60;;;;;;5053093;28;20662;-67
2022/08/04 13:34:34;;;;;;;2.58;2.38;;;32.90;53.20;;;;;;5053003;28;20261;-68
2022/08/04 13:37:03;;;;;;;2.45;2.25;;;32.80;53.10;;;;;;5066490;28;20221;-68
2022/08/04 13:39:30;;;;;;;3.15;2.33;;;32.70;53.40;;;;;;5054780;28;20216;-67
2022/08/04 13:42:02;;;;;;;3.08;2.10;;;32.70;53.40;;;;;;5062754;28;20578;-67